Time,TemperatureF,DewpointF,PressureIn,WindDirection,WindDirectionDegrees,WindSpeedMPH,WindSpeedGustMPH,Humidity,HourlyPrecipIn,Conditions,Clouds,dailyrainin,SoftwareType,DateUTC
2013-08-06 00:07:00,70.6,63.0,29.89,SE,135,0.0,0.0,78,0.00,,,0.00,weatherlink.com 1.10,2013-08-06 04:07:00,
2013-08-06 00:22:00,70.2,64.0,29.88,SE,135,0.0,0.0,80,0.00,,,0.00,weatherlink.com 1.10,2013-08-06 04:22:00,
2013-08-06 00:37:00,69.9,64.0,29.88,ESE,107,0.0,0.0,82,0.00,,,0.00,weatherlink.com 1.10,2013-08-06 04:37:00,
2013-08-06 00:52:00,69.7,64.0,29.88,ESE,122,0.0,1.0,82,0.00,,,0.00,weatherlink.com 1.10,2013-08-06 04:52:00,
2013-08-06 01:07:00,69.8,64.0,29.87,SE,146,0.0,1.0,81,0.00,,,0.00,weatherlink.com 1.10,2013-08-06 05:07:00,
2013-08-06 01:22:00,69.8,64.0,29.87,ESE,115,0.0,2.0,81,0.00,,,0.00,weatherlink.com 1.10,2013-08-06 05:22:00,
2013-08-06 01:37:00,69.7,64.0,29.87,ESE,120,0.0,0.0,82,0.00,,,0.00,weatherlink.com 1.10,2013-08-06 05:37:00,
2013-08-06 01:52:00,69.4,64.0,29.87,SSW,193,0.0,0.0,83,0.00,,,0.00,weatherlink.com 1.10,2013-08-06 05:52:00,
2013-08-06 02:07:00,69.2,64.0,29.87,SE,146,0.0,0.0,83,0.00,,,0.00,weatherlink.com 1.10,2013-08-06 06:07:00,
2013-08-06 02:22:00,68.9,64.0,29.87,SE,142,0.0,0.0,84,0.00,,,0.00,weatherlink.com 1.10,2013-08-06 06:22:00,
2013-08-06 02:37:00,68.7,64.0,29.87,SE,142,0.0,0.0,85,0.00,,,0.00,weatherlink.com 1.10,2013-08-06 06:37:00,
2013-08-06 02:52:00,68.4,64.0,29.87,SE,142,0.0,0.0,86,0.00,,,0.00,weatherlink.com 1.10,2013-08-06 06:52:00,
2013-08-06 03:07:00,68.2,64.0,29.87,SE,143,0.0,0.0,87,0.00,,,0.00,weatherlink.com 1.10,2013-08-06 07:07:00,
2013-08-06 03:22:00,68.1,64.0,29.87,SSE,166,0.0,0.0,87,0.00,,,0.00,weatherlink.com 1.10,2013-08-06 07:22:00,
2013-08-06 03:37:00,68.0,64.0,29.86,SE,135,0.0,0.0,87,0.00,,,0.00,weatherlink.com 1.10,2013-08-06 07:37:00,
2013-08-06 03:52:00,68.1,64.0,29.85,NNE,32,0.0,5.0,87,0.00,,,0.00,weatherlink.com 1.10,2013-08-06 07:52:00,
2013-08-06 04:07:00,68.2,64.0,29.85,North,8,1.0,2.0,87,0.00,,,0.00,weatherlink.com 1.10,2013-08-06 08:07:00,
2013-08-06 04:22:00,68.1,65.0,29.84,East,84,0.0,0.0,88,0.00,,,0.00,weatherlink.com 1.10,2013-08-06 08:22:00,
2013-08-06 04:37:00,67.8,65.0,29.83,East,84,0.0,0.0,89,0.00,,,0.00,weatherlink.com 1.10,2013-08-06 08:37:00,
2013-08-06 04:52:00,67.2,64.0,29.83,East,84,0.0,0.0,90,0.00,,,0.00,weatherlink.com 1.10,2013-08-06 08:52:00,
2013-08-06 05:07:00,66.9,64.0,29.83,East,84,0.0,0.0,91,0.00,,,0.00,weatherlink.com 1.10,2013-08-06 09:07:00,
2013-08-06 05:22:00,66.9,65.0,29.83,East,85,0.0,0.0,92,0.00,,,0.00,weatherlink.com 1.10,2013-08-06 09:22:00,
2013-08-06 05:37:00,66.8,65.0,29.83,East,84,0.0,0.0,92,0.00,,,0.00,weatherlink.com 1.10,2013-08-06 09:37:00,
2013-08-06 05:52:00,66.7,65.0,29.84,ESE,114,0.0,0.0,93,0.00,,,0.00,weatherlink.com 1.10,2013-08-06 09:52:00,
2013-08-06 06:07:00,66.8,65.0,29.84,ESE,103,0.0,0.0,92,0.00,,,0.00,weatherlink.com 1.10,2013-08-06 10:07:00,
2013-08-06 06:22:00,67.0,65.0,29.85,ESE,103,0.0,0.0,92,0.00,,,0.00,weatherlink.com 1.10,2013-08-06 10:22:00,
2013-08-06 06:37:00,67.2,65.0,29.86,ESE,105,0.0,0.0,91,0.00,,,0.00,weatherlink.com 1.10,2013-08-06 10:37:00,
2013-08-06 06:52:00,67.4,65.0,29.85,ESE,105,0.0,0.0,91,0.00,,,0.00,weatherlink.com 1.10,2013-08-06 10:52:00,
2013-08-06 07:07:00,67.4,65.0,29.85,East,98,0.0,0.0,91,0.00,,,0.00,weatherlink.com 1.10,2013-08-06 11:07:00,
2013-08-06 07:22:00,67.5,65.0,29.86,East,98,0.0,0.0,91,0.00,,,0.00,weatherlink.com 1.10,2013-08-06 11:22:00,
2013-08-06 07:37:00,67.7,65.0,29.86,East,98,0.0,0.0,91,0.00,,,0.00,weatherlink.com 1.10,2013-08-06 11:37:00,
2013-08-06 07:53:00,68.1,66.0,29.85,East,97,0.0,0.0,92,0.00,,,0.00,weatherlink.com 1.10,2013-08-06 11:53:00,
2013-08-06 08:08:00,69.0,66.0,29.86,East,98,0.0,0.0,90,0.00,,,0.00,weatherlink.com 1.10,2013-08-06 12:08:00,
2013-08-06 08:23:00,69.5,66.0,29.86,SE,139,0.0,0.0,89,0.00,,,0.00,weatherlink.com 1.10,2013-08-06 12:23:00,
2013-08-06 08:38:00,69.8,67.0,29.86,SE,139,0.0,0.0,89,0.00,,,0.00,weatherlink.com 1.10,2013-08-06 12:38:00,
2013-08-06 08:53:00,70.2,67.0,29.87,ESE,117,0.0,0.0,89,0.00,,,0.00,weatherlink.com 1.10,2013-08-06 12:53:00,
2013-08-06 09:08:00,70.8,67.0,29.86,SE,135,1.0,2.0,86,0.00,,,0.00,weatherlink.com 1.10,2013-08-06 13:08:00,
2013-08-06 09:23:00,72.0,67.0,29.86,ESE,108,1.0,1.0,85,0.00,,,0.00,weatherlink.com 1.10,2013-08-06 13:23:00,
2013-08-06 09:38:00,72.6,67.0,29.87,SE,134,1.0,4.0,83,0.00,,,0.00,weatherlink.com 1.10,2013-08-06 13:38:00,
2013-08-06 09:53:00,72.4,67.0,29.88,SE,138,2.0,2.0,84,0.00,,,0.00,weatherlink.com 1.10,2013-08-06 13:53:00,
2013-08-06 10:08:00,71.8,67.0,29.87,SE,139,2.0,4.0,85,0.00,,,0.00,weatherlink.com 1.10,2013-08-06 14:08:00,
2013-08-06 10:23:00,71.8,68.0,29.86,SE,134,1.0,4.0,86,0.00,,,0.00,weatherlink.com 1.10,2013-08-06 14:23:00,
2013-08-06 10:38:00,72.0,68.0,29.87,SE,129,2.0,5.0,86,0.00,,,0.00,weatherlink.com 1.10,2013-08-06 14:38:00,
2013-08-06 10:53:00,72.4,68.0,29.87,ESE,111,1.0,5.0,86,0.00,,,0.00,weatherlink.com 1.10,2013-08-06 14:53:00,
2013-08-06 11:08:00,73.4,69.0,29.87,SSE,148,2.0,3.0,85,0.00,,,0.00,weatherlink.com 1.10,2013-08-06 15:08:00,
2013-08-06 11:23:00,74.1,70.0,29.87,SW,228,1.0,3.0,86,0.00,,,0.00,weatherlink.com 1.10,2013-08-06 15:23:00,
2013-08-06 11:38:00,74.5,69.0,29.87,ESE,105,1.0,6.0,84,0.00,,,0.00,weatherlink.com 1.10,2013-08-06 15:38:00,
2013-08-06 11:53:00,75.4,70.0,29.86,ENE,72,2.0,4.0,84,0.00,,,0.00,weatherlink.com 1.10,2013-08-06 15:53:00,
2013-08-06 12:08:00,77.0,71.0,29.87,East,98,0.0,2.0,82,0.00,,,0.00,weatherlink.com 1.10,2013-08-06 16:08:00,
2013-08-06 12:23:00,76.8,71.0,29.86,ESE,108,2.0,3.0,81,0.00,,,0.00,weatherlink.com 1.10,2013-08-06 16:23:00,
2013-08-06 12:38:00,76.2,71.0,29.86,NW,325,1.0,4.0,83,0.00,,,0.00,weatherlink.com 1.10,2013-08-06 16:38:00,
2013-08-06 12:53:00,75.9,70.0,29.85,SSE,156,2.0,4.0,83,0.00,,,0.00,weatherlink.com 1.10,2013-08-06 16:53:00,
2013-08-06 13:08:00,76.9,71.0,29.86,SW,229,1.0,3.0,83,0.00,,,0.00,weatherlink.com 1.10,2013-08-06 17:08:00,
2013-08-06 13:23:00,76.4,71.0,29.85,East,90,1.0,4.0,83,0.00,,,0.00,weatherlink.com 1.10,2013-08-06 17:23:00,
2013-08-06 13:38:00,76.1,71.0,29.85,SE,127,0.0,4.0,84,0.00,,,0.00,weatherlink.com 1.10,2013-08-06 17:38:00,
2013-08-06 13:53:00,77.5,71.0,29.85,SSE,167,0.0,3.0,81,0.00,,,0.00,weatherlink.com 1.10,2013-08-06 17:53:00,
2013-08-06 14:08:00,77.6,72.0,29.85,South,181,0.0,3.0,82,0.00,,,0.00,weatherlink.com 1.10,2013-08-06 18:08:00,
2013-08-06 14:23:00,77.1,72.0,29.85,NE,39,1.0,1.0,84,0.00,,,0.00,weatherlink.com 1.10,2013-08-06 18:23:00,
2013-08-06 14:38:00,77.2,72.0,29.84,SE,129,0.0,4.0,83,0.00,,,0.00,weatherlink.com 1.10,2013-08-06 18:38:00,
2013-08-06 14:53:00,78.2,72.0,29.84,SSE,149,0.0,2.0,81,0.00,,,0.00,weatherlink.com 1.10,2013-08-06 18:53:00,
2013-08-06 15:08:00,78.6,72.0,29.84,SW,236,0.0,2.0,80,0.00,,,0.00,weatherlink.com 1.10,2013-08-06 19:08:00,
2013-08-06 15:23:00,78.0,73.0,29.85,WSW,238,1.0,1.0,83,0.00,,,0.00,weatherlink.com 1.10,2013-08-06 19:23:00,
2013-08-06 15:38:00,77.5,72.0,29.84,East,91,0.0,1.0,84,0.00,,,0.00,weatherlink.com 1.10,2013-08-06 19:38:00,
2013-08-06 15:53:00,77.2,73.0,29.84,East,94,0.0,2.0,86,0.00,,,0.00,weatherlink.com 1.10,2013-08-06 19:53:00,
2013-08-06 16:08:00,78.0,73.0,29.83,East,96,0.0,2.0,84,0.00,,,0.00,weatherlink.com 1.10,2013-08-06 20:08:00,
2013-08-06 16:23:00,80.1,74.0,29.83,East,91,3.0,3.0,81,0.00,,,0.00,weatherlink.com 1.10,2013-08-06 20:23:00,
2013-08-06 16:38:00,80.3,74.0,29.83,SSW,204,0.0,3.0,80,0.00,,,0.00,weatherlink.com 1.10,2013-08-06 20:38:00,
2013-08-06 16:53:00,80.5,74.0,29.83,SSE,159,0.0,3.0,80,0.00,,,0.00,weatherlink.com 1.10,2013-08-06 20:53:00,
2013-08-06 17:08:00,80.2,74.0,29.83,NW,324,0.0,2.0,80,0.00,,,0.00,weatherlink.com 1.10,2013-08-06 21:08:00,
2013-08-06 17:23:00,81.0,74.0,29.83,ESE,104,3.0,3.0,78,0.00,,,0.00,weatherlink.com 1.10,2013-08-06 21:23:00,
2013-08-06 17:38:00,80.8,74.0,29.83,ESE,103,0.0,4.0,79,0.00,,,0.00,weatherlink.com 1.10,2013-08-06 21:38:00,
2013-08-06 17:53:00,82.2,74.0,29.83,SE,128,0.0,1.0,76,0.00,,,0.00,weatherlink.com 1.10,2013-08-06 21:53:00,
2013-08-06 18:08:00,81.5,74.0,29.83,WSW,257,1.0,3.0,78,0.00,,,0.00,weatherlink.com 1.10,2013-08-06 22:08:00,
2013-08-06 18:23:00,80.2,74.0,29.84,South,191,0.0,0.0,80,0.00,,,0.00,weatherlink.com 1.10,2013-08-06 22:23:00,
2013-08-06 18:38:00,79.1,73.0,29.84,South,191,0.0,0.0,82,0.00,,,0.00,weatherlink.com 1.10,2013-08-06 22:38:00,
2013-08-06 18:53:00,79.5,74.0,29.82,SE,129,1.0,3.0,82,0.00,,,0.00,weatherlink.com 1.10,2013-08-06 22:53:00,
2013-08-06 19:08:00,79.9,74.0,29.82,NNW,335,0.0,0.0,81,0.00,,,0.00,weatherlink.com 1.10,2013-08-06 23:08:00,
2013-08-06 19:23:00,79.3,73.0,29.82,WSW,239,0.0,1.0,82,0.00,,,0.00,weatherlink.com 1.10,2013-08-06 23:23:00,
2013-08-06 19:38:00,78.7,74.0,29.82,SE,145,0.0,2.0,84,0.00,,,0.00,weatherlink.com 1.10,2013-08-06 23:38:00,
2013-08-06 19:53:00,78.4,74.0,29.82,ESE,103,0.0,2.0,85,0.00,,,0.00,weatherlink.com 1.10,2013-08-06 23:53:00,
2013-08-06 20:08:00,78.1,73.0,29.83,ESE,117,0.0,1.0,85,0.00,,,0.00,weatherlink.com 1.10,2013-08-07 00:08:00,
2013-08-06 20:23:00,77.2,73.0,29.83,ESE,117,0.0,0.0,87,0.00,,,0.00,weatherlink.com 1.10,2013-08-07 00:23:00,
2013-08-06 20:38:00,76.2,73.0,29.83,ESE,117,0.0,0.0,89,0.00,,,0.00,weatherlink.com 1.10,2013-08-07 00:38:00,
2013-08-06 20:53:00,75.3,72.0,29.83,ESE,117,0.0,0.0,89,0.00,,,0.00,weatherlink.com 1.10,2013-08-07 00:53:00,
2013-08-06 21:09:00,74.7,72.0,29.83,ESE,117,0.0,1.0,91,0.00,,,0.00,weatherlink.com 1.10,2013-08-07 01:09:00,
2013-08-06 21:24:00,74.4,72.0,29.83,ESE,117,0.0,1.0,92,0.00,,,0.00,weatherlink.com 1.10,2013-08-07 01:24:00,
2013-08-06 21:39:00,73.9,72.0,29.83,ESE,117,0.0,0.0,92,0.00,,,0.00,weatherlink.com 1.10,2013-08-07 01:39:00,
2013-08-06 21:54:00,73.8,72.0,29.83,ESE,114,0.0,0.0,94,0.00,,,0.00,weatherlink.com 1.10,2013-08-07 01:54:00,
2013-08-06 22:09:00,73.5,72.0,29.83,East,98,0.0,0.0,94,0.00,,,0.00,weatherlink.com 1.10,2013-08-07 02:09:00,
2013-08-06 22:24:00,73.1,71.0,29.83,East,98,0.0,0.0,94,0.00,,,0.00,weatherlink.com 1.10,2013-08-07 02:24:00,
2013-08-06 22:39:00,72.8,71.0,29.84,East,98,0.0,0.0,94,0.00,,,0.00,weatherlink.com 1.10,2013-08-07 02:39:00,
2013-08-06 22:54:00,73.0,72.0,29.84,SSE,160,0.0,2.0,95,0.00,,,0.00,weatherlink.com 1.10,2013-08-07 02:54:00,
2013-08-06 23:09:00,72.9,71.0,29.84,East,98,0.0,1.0,95,0.00,,,0.00,weatherlink.com 1.10,2013-08-07 03:09:00,
2013-08-06 23:24:00,72.9,71.0,29.85,East,98,0.0,1.0,95,0.00,,,0.00,weatherlink.com 1.10,2013-08-07 03:24:00,
2013-08-06 23:39:00,72.7,71.0,29.85,South,174,0.0,0.0,95,0.00,,,0.00,weatherlink.com 1.10,2013-08-07 03:39:00,
2013-08-06 23:54:00,72.6,71.0,29.85,ESE,114,0.0,0.0,96,0.00,,,0.00,weatherlink.com 1.10,2013-08-07 03:54:00,